sensor_id;sensor_type;location;lat;lon;timestamp;temperature;humidity
2867;DHT22;1441;48.886;8.728;2022-11-20T00:02:15;6.20;99.90
2867;DHT22;1441;48.886;8.728;2022-11-20T00:04:40;6.20;99.90
2867;DHT22;1441;48.886;8.728;2022-11-20T00:07:06;6.20;99.90
2867;DHT22;1441;48.886;8.728;2022-11-20T00:09:32;6.10;99.90
2867;DHT22;1441;48.886;8.728;2022-11-20T00:11:57;6.10;99.90
2867;DHT22;1441;48.886;8.728;2022-11-20T00:14:23;6.10;99.90
2867;DHT22;1441;48.886;8.728;2022-11-20T00:16:48;6.00;99.90
2867;DHT22;1441;48.886;8.728;2022-11-20T00:19:14;6.00;99.90
2867;DHT22;1441;48.886;8.728;2022-11-20T00:21:40;6.00;99.90
2867;DHT22;1441;48.886;8.728;2022-11-20T00:24:08;5.90;99.90
2867;DHT22;1441;48.886;8.728;2022-11-20T00:26:33;5.90;99.90
2867;DHT22;1441;48.886;8.728;2022-11-20T00:29:01;5.90;99.90
2867;DHT22;1441;48.886;8.728;2022-11-20T00:31:27;5.90;99.90
2867;DHT22;1441;48.886;8.728;2022-11-20T00:33:53;5.90;99.90
2867;DHT22;1441;48.886;8.728;2022-11-20T00:36:27;5.90;99.90
2867;DHT22;1441;48.886;8.728;2022-11-20T00:38:55;5.90;99.90
2867;DHT22;1441;48.886;8.728;2022-11-20T00:41:21;5.90;99.90
2867;DHT22;1441;48.886;8.728;2022-11-20T00:43:47;5.90;99.90
2867;DHT22;1441;48.886;8.728;2022-11-20T00:46:17;5.90;99.90
2867;DHT22;1441;48.886;8.728;2022-11-20T00:48:44;5.90;99.90
2867;DHT22;1441;48.886;8.728;2022-11-20T00:51:12;5.90;99.90
2867;DHT22;1441;48.886;8.728;2022-11-20T00:53:38;5.90;99.90
2867;DHT22;1441;48.886;8.728;2022-11-20T00:56:06;5.90;99.90
2867;DHT22;1441;48.886;8.728;2022-11-20T00:58:34;6.00;99.90
2867;DHT22;1441;48.886;8.728;2022-11-20T01:01:05;6.00;99.90
2867;DHT22;1441;48.886;8.728;2022-11-20T01:03:32;6.10;99.90
2867;DHT22;1441;48.886;8.728;2022-11-20T01:06:02;6.10;99.90
2867;DHT22;1441;48.886;8.728;2022-11-20T01:08:32;6.10;99.90
2867;DHT22;1441;48.886;8.728;2022-11-20T01:11:03;6.10;99.90
2867;DHT22;1441;48.886;8.728;2022-11-20T01:13:30;6.10;99.90
2867;DHT22;1441;48.886;8.728;2022-11-20T01:18:45;6.20;99.90
2867;DHT22;1441;48.886;8.728;2022-11-20T01:21:14;6.10;99.90
2867;DHT22;1441;48.886;8.728;2022-11-20T01:23:41;6.20;99.90
2867;DHT22;1441;48.886;8.728;2022-11-20T01:26:10;6.20;99.90
2867;DHT22;1441;48.886;8.728;2022-11-20T01:28:37;6.20;99.90
2867;DHT22;1441;48.886;8.728;2022-11-20T01:31:12;6.20;99.90
2867;DHT22;1441;48.886;8.728;2022-11-20T01:33:39;6.20;99.90
2867;DHT22;1441;48.886;8.728;2022-11-20T01:36:06;6.20;99.90
2867;DHT22;1441;48.886;8.728;2022-11-20T01:38:32;6.30;99.90
2867;DHT22;1441;48.886;8.728;2022-11-20T01:40:58;6.30;99.90
2867;DHT22;1441;48.886;8.728;2022-11-20T01:43:24;6.30;99.90
2867;DHT22;1441;48.886;8.728;2022-11-20T01:46:08;6.30;99.90
2867;DHT22;1441;48.886;8.728;2022-11-20T01:48:57;6.30;99.90
2867;DHT22;1441;48.886;8.728;2022-11-20T01:53:54;6.30;99.90
2867;DHT22;1441;48.886;8.728;2022-11-20T01:56:23;6.40;99.90
2867;DHT22;1441;48.886;8.728;2022-11-20T01:58:57;6.40;99.90
2867;DHT22;1441;48.886;8.728;2022-11-20T02:01:23;6.40;99.90
2867;DHT22;1441;48.886;8.728;2022-11-20T02:03:50;6.40;99.90
2867;DHT22;1441;48.886;8.728;2022-11-20T02:06:33;6.40;99.90
2867;DHT22;1441;48.886;8.728;2022-11-20T02:09:00;6.50;99.90
2867;DHT22;1441;48.886;8.728;2022-11-20T02:11:26;6.60;99.90
2867;DHT22;1441;48.886;8.728;2022-11-20T02:13:51;6.60;99.90
2867;DHT22;1441;48.886;8.728;2022-11-20T02:16:24;6.60;99.90
2867;DHT22;1441;48.886;8.728;2022-11-20T02:18:50;6.60;99.90
2867;DHT22;1441;48.886;8.728;2022-11-20T02:24:14;6.50;99.90
2867;DHT22;1441;48.886;8.728;2022-11-20T02:29:17;6.50;99.90
2867;DHT22;1441;48.886;8.728;2022-11-20T02:31:45;6.50;99.90
2867;DHT22;1441;48.886;8.728;2022-11-20T02:34:10;6.60;99.90
2867;DHT22;1441;48.886;8.728;2022-11-20T02:36:39;6.60;99.90
2867;DHT22;1441;48.886;8.728;2022-11-20T02:39:07;6.60;99.90
2867;DHT22;1441;48.886;8.728;2022-11-20T02:41:35;6.60;99.90
2867;DHT22;1441;48.886;8.728;2022-11-20T02:44:01;6.60;99.90
2867;DHT22;1441;48.886;8.728;2022-11-20T02:46:27;6.60;99.90
2867;DHT22;1441;48.886;8.728;2022-11-20T02:48:53;6.60;99.90
2867;DHT22;1441;48.886;8.728;2022-11-20T02:51:18;6.60;99.90
2867;DHT22;1441;48.886;8.728;2022-11-20T02:53:44;6.60;99.90
2867;DHT22;1441;48.886;8.728;2022-11-20T02:56:10;6.50;99.90
2867;DHT22;1441;48.886;8.728;2022-11-20T02:58:35;6.50;99.90
2867;DHT22;1441;48.886;8.728;2022-11-20T03:01:01;6.50;99.90
2867;DHT22;1441;48.886;8.728;2022-11-20T03:03:26;6.50;99.90
2867;DHT22;1441;48.886;8.728;2022-11-20T03:05:52;6.40;99.90
2867;DHT22;1441;48.886;8.728;2022-11-20T03:08:17;6.40;99.90
2867;DHT22;1441;48.886;8.728;2022-11-20T03:10:43;6.40;99.90
2867;DHT22;1441;48.886;8.728;2022-11-20T03:13:08;6.50;99.90
2867;DHT22;1441;48.886;8.728;2022-11-20T03:15:36;6.50;99.90
2867;DHT22;1441;48.886;8.728;2022-11-20T03:18:02;6.50;99.90
2867;DHT22;1441;48.886;8.728;2022-11-20T03:20:28;6.50;99.90
2867;DHT22;1441;48.886;8.728;2022-11-20T03:22:54;6.50;99.90
2867;DHT22;1441;48.886;8.728;2022-11-20T03:25:20;6.50;99.90
2867;DHT22;1441;48.886;8.728;2022-11-20T03:27:46;6.50;99.90
2867;DHT22;1441;48.886;8.728;2022-11-20T03:30:12;6.50;99.90
2867;DHT22;1441;48.886;8.728;2022-11-20T03:32:37;6.50;99.90
2867;DHT22;1441;48.886;8.728;2022-11-20T03:35:03;6.50;99.90
2867;DHT22;1441;48.886;8.728;2022-11-20T03:37:29;6.40;99.90
2867;DHT22;1441;48.886;8.728;2022-11-20T03:39:55;6.40;99.90
2867;DHT22;1441;48.886;8.728;2022-11-20T03:42:20;6.50;99.90
2867;DHT22;1441;48.886;8.728;2022-11-20T03:45:05;6.50;99.90
2867;DHT22;1441;48.886;8.728;2022-11-20T03:47:30;6.50;99.90
2867;DHT22;1441;48.886;8.728;2022-11-20T03:49:56;6.40;99.90
2867;DHT22;1441;48.886;8.728;2022-11-20T03:52:21;6.40;99.90
2867;DHT22;1441;48.886;8.728;2022-11-20T03:54:47;6.50;99.90
2867;DHT22;1441;48.886;8.728;2022-11-20T03:57:12;6.50;99.90
2867;DHT22;1441;48.886;8.728;2022-11-20T03:59:38;6.50;99.90
2867;DHT22;1441;48.886;8.728;2022-11-20T04:02:04;6.50;99.90
2867;DHT22;1441;48.886;8.728;2022-11-20T04:04:29;6.50;99.90
2867;DHT22;1441;48.886;8.728;2022-11-20T04:06:55;6.50;99.90
2867;DHT22;1441;48.886;8.728;2022-11-20T04:09:20;6.50;99.90
2867;DHT22;1441;48.886;8.728;2022-11-20T04:11:46;6.50;99.90
2867;DHT22;1441;48.886;8.728;2022-11-20T04:14:14;6.50;99.90
2867;DHT22;1441;48.886;8.728;2022-11-20T04:16:40;6.50;99.90
2867;DHT22;1441;48.886;8.728;2022-11-20T04:19:10;6.50;99.90
2867;DHT22;1441;48.886;8.728;2022-11-20T04:21:37;6.50;99.90
2867;DHT22;1441;48.886;8.728;2022-11-20T04:24:03;6.50;99.90
2867;DHT22;1441;48.886;8.728;2022-11-20T04:26:30;6.60;99.90
2867;DHT22;1441;48.886;8.728;2022-11-20T04:28:56;6.60;99.90
2867;DHT22;1441;48.886;8.728;2022-11-20T04:31:27;6.60;99.90
2867;DHT22;1441;48.886;8.728;2022-11-20T04:33:53;6.60;99.90
2867;DHT22;1441;48.886;8.728;2022-11-20T04:36:21;6.60;99.90
2867;DHT22;1441;48.886;8.728;2022-11-20T04:38:53;6.60;99.90
2867;DHT22;1441;48.886;8.728;2022-11-20T04:41:21;6.60;99.90
2867;DHT22;1441;48.886;8.728;2022-11-20T04:43:48;6.60;99.90
2867;DHT22;1441;48.886;8.728;2022-11-20T04:46:14;6.60;99.90
2867;DHT22;1441;48.886;8.728;2022-11-20T04:48:40;6.50;99.90
2867;DHT22;1441;48.886;8.728;2022-11-20T04:51:05;6.60;99.90
2867;DHT22;1441;48.886;8.728;2022-11-20T04:53:31;6.50;99.90
2867;DHT22;1441;48.886;8.728;2022-11-20T04:56:01;6.60;99.90
2867;DHT22;1441;48.886;8.728;2022-11-20T04:58:27;6.60;99.90
2867;DHT22;1441;48.886;8.728;2022-11-20T05:00:53;6.60;99.90
2867;DHT22;1441;48.886;8.728;2022-11-20T05:03:18;6.60;99.90
2867;DHT22;1441;48.886;8.728;2022-11-20T05:05:44;6.60;99.90
2867;DHT22;1441;48.886;8.728;2022-11-20T05:08:09;6.60;99.90
2867;DHT22;1441;48.886;8.728;2022-11-20T05:10:35;6.60;99.90
2867;DHT22;1441;48.886;8.728;2022-11-20T05:13:00;6.60;99.90
2867;DHT22;1441;48.886;8.728;2022-11-20T05:15:26;6.60;99.90
2867;DHT22;1441;48.886;8.728;2022-11-20T05:17:52;6.60;99.90
2867;DHT22;1441;48.886;8.728;2022-11-20T05:20:18;6.70;99.90
2867;DHT22;1441;48.886;8.728;2022-11-20T05:22:44;6.60;99.90
2867;DHT22;1441;48.886;8.728;2022-11-20T05:25:11;6.60;99.90
2867;DHT22;1441;48.886;8.728;2022-11-20T05:27:37;6.60;99.90
2867;DHT22;1441;48.886;8.728;2022-11-20T05:30:06;6.60;99.90
2867;DHT22;1441;48.886;8.728;2022-11-20T05:32:32;6.60;99.90
2867;DHT22;1441;48.886;8.728;2022-11-20T05:34:58;6.60;99.90
2867;DHT22;1441;48.886;8.728;2022-11-20T05:37:23;6.60;99.90
2867;DHT22;1441;48.886;8.728;2022-11-20T05:39:49;6.70;99.90
2867;DHT22;1441;48.886;8.728;2022-11-20T05:42:14;6.80;99.90
2867;DHT22;1441;48.886;8.728;2022-11-20T05:44:55;6.80;99.90
2867;DHT22;1441;48.886;8.728;2022-11-20T05:47:21;6.80;99.90
2867;DHT22;1441;48.886;8.728;2022-11-20T05:49:46;6.70;99.90
2867;DHT22;1441;48.886;8.728;2022-11-20T05:52:12;6.60;99.90
2867;DHT22;1441;48.886;8.728;2022-11-20T05:54:38;6.60;99.90
2867;DHT22;1441;48.886;8.728;2022-11-20T05:57:03;6.60;99.90
2867;DHT22;1441;48.886;8.728;2022-11-20T05:59:29;6.60;99.90
2867;DHT22;1441;48.886;8.728;2022-11-20T06:01:54;6.70;99.90
2867;DHT22;1441;48.886;8.728;2022-11-20T06:04:20;6.70;99.90
2867;DHT22;1441;48.886;8.728;2022-11-20T06:06:47;6.80;99.90
2867;DHT22;1441;48.886;8.728;2022-11-20T06:09:12;6.80;99.90
2867;DHT22;1441;48.886;8.728;2022-11-20T06:11:38;6.70;99.90
2867;DHT22;1441;48.886;8.728;2022-11-20T06:14:04;6.70;99.90
2867;DHT22;1441;48.886;8.728;2022-11-20T06:16:29;6.70;99.90
2867;DHT22;1441;48.886;8.728;2022-11-20T06:18:55;6.70;99.90
2867;DHT22;1441;48.886;8.728;2022-11-20T06:21:21;6.80;99.90
2867;DHT22;1441;48.886;8.728;2022-11-20T06:23:48;6.80;99.90
2867;DHT22;1441;48.886;8.728;2022-11-20T06:26:22;6.80;99.90
2867;DHT22;1441;48.886;8.728;2022-11-20T06:28:49;6.80;99.90
2867;DHT22;1441;48.886;8.728;2022-11-20T06:31:17;6.80;99.90
2867;DHT22;1441;48.886;8.728;2022-11-20T06:33:43;6.80;99.90
2867;DHT22;1441;48.886;8.728;2022-11-20T06:36:10;6.80;99.90
2867;DHT22;1441;48.886;8.728;2022-11-20T06:38:37;6.90;99.90
2867;DHT22;1441;48.886;8.728;2022-11-20T06:41:04;6.90;99.90
2867;DHT22;1441;48.886;8.728;2022-11-20T06:43:30;6.80;99.90
2867;DHT22;1441;48.886;8.728;2022-11-20T06:45:57;6.90;99.90
2867;DHT22;1441;48.886;8.728;2022-11-20T06:48:23;6.90;99.90
2867;DHT22;1441;48.886;8.728;2022-11-20T06:50:49;7.00;99.90
2867;DHT22;1441;48.886;8.728;2022-11-20T06:53:15;7.00;99.90
2867;DHT22;1441;48.886;8.728;2022-11-20T06:55:45;7.00;99.90
2867;DHT22;1441;48.886;8.728;2022-11-20T06:58:12;6.90;99.90
2867;DHT22;1441;48.886;8.728;2022-11-20T07:00:37;6.90;99.90
2867;DHT22;1441;48.886;8.728;2022-11-20T07:03:08;7.00;99.90
2867;DHT22;1441;48.886;8.728;2022-11-20T07:05:34;6.90;99.90
2867;DHT22;1441;48.886;8.728;2022-11-20T07:08:00;7.00;99.90
2867;DHT22;1441;48.886;8.728;2022-11-20T07:10:26;7.00;99.90
2867;DHT22;1441;48.886;8.728;2022-11-20T07:12:53;6.90;99.90
2867;DHT22;1441;48.886;8.728;2022-11-20T07:15:20;6.90;99.90
2867;DHT22;1441;48.886;8.728;2022-11-20T07:17:45;6.90;99.90
2867;DHT22;1441;48.886;8.728;2022-11-20T07:20:12;6.90;99.90
2867;DHT22;1441;48.886;8.728;2022-11-20T07:22:38;6.80;99.90
2867;DHT22;1441;48.886;8.728;2022-11-20T07:25:04;6.80;99.90
2867;DHT22;1441;48.886;8.728;2022-11-20T07:27:30;6.90;99.90
2867;DHT22;1441;48.886;8.728;2022-11-20T07:29:55;6.80;99.90
2867;DHT22;1441;48.886;8.728;2022-11-20T07:32:22;6.80;99.90
2867;DHT22;1441;48.886;8.728;2022-11-20T07:34:48;6.80;99.90
2867;DHT22;1441;48.886;8.728;2022-11-20T07:37:14;6.80;99.90
2867;DHT22;1441;48.886;8.728;2022-11-20T07:39:40;6.80;99.90
2867;DHT22;1441;48.886;8.728;2022-11-20T07:42:08;6.90;99.90
2867;DHT22;1441;48.886;8.728;2022-11-20T07:44:35;6.90;99.90
2867;DHT22;1441;48.886;8.728;2022-11-20T07:47:02;6.90;99.90
2867;DHT22;1441;48.886;8.728;2022-11-20T07:49:28;6.90;99.90
2867;DHT22;1441;48.886;8.728;2022-11-20T07:51:54;6.90;99.90
2867;DHT22;1441;48.886;8.728;2022-11-20T07:54:20;6.90;99.90
2867;DHT22;1441;48.886;8.728;2022-11-20T07:56:46;7.10;99.90
2867;DHT22;1441;48.886;8.728;2022-11-20T07:59:12;7.00;99.90
2867;DHT22;1441;48.886;8.728;2022-11-20T08:01:39;6.90;99.90
2867;DHT22;1441;48.886;8.728;2022-11-20T08:04:04;6.90;99.90
2867;DHT22;1441;48.886;8.728;2022-11-20T08:06:30;6.80;99.90
2867;DHT22;1441;48.886;8.728;2022-11-20T08:08:56;6.90;99.90
2867;DHT22;1441;48.886;8.728;2022-11-20T08:11:21;6.90;99.90
2867;DHT22;1441;48.886;8.728;2022-11-20T08:14:06;6.80;99.90
2867;DHT22;1441;48.886;8.728;2022-11-20T08:16:38;6.90;99.90
2867;DHT22;1441;48.886;8.728;2022-11-20T08:19:03;6.90;99.90
2867;DHT22;1441;48.886;8.728;2022-11-20T08:21:30;6.90;99.90
2867;DHT22;1441;48.886;8.728;2022-11-20T08:23:57;7.00;99.90
2867;DHT22;1441;48.886;8.728;2022-11-20T08:26:23;7.00;99.90
2867;DHT22;1441;48.886;8.728;2022-11-20T08:28:49;7.00;99.90
2867;DHT22;1441;48.886;8.728;2022-11-20T08:31:14;7.00;99.90
2867;DHT22;1441;48.886;8.728;2022-11-20T08:33:40;7.00;99.90
2867;DHT22;1441;48.886;8.728;2022-11-20T08:36:06;7.10;99.90
2867;DHT22;1441;48.886;8.728;2022-11-20T08:38:32;7.10;99.90
2867;DHT22;1441;48.886;8.728;2022-11-20T08:40:59;7.10;99.90
2867;DHT22;1441;48.886;8.728;2022-11-20T08:43:44;7.10;99.90
2867;DHT22;1441;48.886;8.728;2022-11-20T08:46:09;7.10;99.90
2867;DHT22;1441;48.886;8.728;2022-11-20T08:48:35;7.20;99.90
2867;DHT22;1441;48.886;8.728;2022-11-20T08:51:00;7.20;99.90
2867;DHT22;1441;48.886;8.728;2022-11-20T08:53:27;7.30;99.90
2867;DHT22;1441;48.886;8.728;2022-11-20T08:55:53;7.30;99.90
2867;DHT22;1441;48.886;8.728;2022-11-20T08:58:18;7.30;99.90
2867;DHT22;1441;48.886;8.728;2022-11-20T09:00:44;7.30;99.90
2867;DHT22;1441;48.886;8.728;2022-11-20T09:03:09;7.30;99.90
2867;DHT22;1441;48.886;8.728;2022-11-20T09:05:35;7.30;99.90
2867;DHT22;1441;48.886;8.728;2022-11-20T09:08:01;7.30;99.90
2867;DHT22;1441;48.886;8.728;2022-11-20T09:10:27;7.30;99.90
2867;DHT22;1441;48.886;8.728;2022-11-20T09:12:53;7.30;99.90
2867;DHT22;1441;48.886;8.728;2022-11-20T09:15:20;7.30;99.90
2867;DHT22;1441;48.886;8.728;2022-11-20T09:17:58;7.30;99.90
2867;DHT22;1441;48.886;8.728;2022-11-20T09:20:26;7.20;99.90
2867;DHT22;1441;48.886;8.728;2022-11-20T09:22:52;7.20;99.90
2867;DHT22;1441;48.886;8.728;2022-11-20T09:25:18;7.20;99.90
2867;DHT22;1441;48.886;8.728;2022-11-20T09:27:44;7.30;99.90
2867;DHT22;1441;48.886;8.728;2022-11-20T09:30:14;7.20;99.90
2867;DHT22;1441;48.886;8.728;2022-11-20T09:32:40;7.10;99.90
2867;DHT22;1441;48.886;8.728;2022-11-20T09:35:06;7.10;99.90
2867;DHT22;1441;48.886;8.728;2022-11-20T09:37:32;7.10;99.90
2867;DHT22;1441;48.886;8.728;2022-11-20T09:39:57;7.10;99.90
2867;DHT22;1441;48.886;8.728;2022-11-20T09:42:47;7.10;99.90
2867;DHT22;1441;48.886;8.728;2022-11-20T09:54:15;7.00;99.90
2867;DHT22;1441;48.886;8.728;2022-11-20T09:56:45;6.90;99.90
2867;DHT22;1441;48.886;8.728;2022-11-20T09:59:26;6.90;99.90
2867;DHT22;1441;48.886;8.728;2022-11-20T10:01:55;6.80;99.90
2867;DHT22;1441;48.886;8.728;2022-11-20T10:04:22;6.80;99.90
2867;DHT22;1441;48.886;8.728;2022-11-20T10:07:24;6.80;99.90
2867;DHT22;1441;48.886;8.728;2022-11-20T10:09:54;6.80;99.90
2867;DHT22;1441;48.886;8.728;2022-11-20T10:13:20;6.90;99.90
2867;DHT22;1441;48.886;8.728;2022-11-20T10:15:31;6.80;99.90
2867;DHT22;1441;48.886;8.728;2022-11-20T10:20:47;6.90;99.90
2867;DHT22;1441;48.886;8.728;2022-11-20T10:26:40;7.00;99.90
2867;DHT22;1441;48.886;8.728;2022-11-20T10:29:15;7.00;99.90
2867;DHT22;1441;48.886;8.728;2022-11-20T10:31:42;7.00;99.90
2867;DHT22;1441;48.886;8.728;2022-11-20T10:34:22;7.00;99.90
2867;DHT22;1441;48.886;8.728;2022-11-20T10:37:02;7.10;99.90
2867;DHT22;1441;48.886;8.728;2022-11-20T10:39:50;7.10;99.90
2867;DHT22;1441;48.886;8.728;2022-11-20T10:42:28;7.00;99.90
2867;DHT22;1441;48.886;8.728;2022-11-20T10:45:49;7.00;99.90
2867;DHT22;1441;48.886;8.728;2022-11-20T10:47:48;7.10;99.90
2867;DHT22;1441;48.886;8.728;2022-11-20T10:50:19;7.10;99.90
2867;DHT22;1441;48.886;8.728;2022-11-20T10:55:45;7.40;99.90
2867;DHT22;1441;48.886;8.728;2022-11-20T10:58:21;7.50;99.90
2867;DHT22;1441;48.886;8.728;2022-11-20T11:01:13;7.70;99.90
2867;DHT22;1441;48.886;8.728;2022-11-20T11:03:39;7.70;99.90
2867;DHT22;1441;48.886;8.728;2022-11-20T11:06:39;7.60;99.90
2867;DHT22;1441;48.886;8.728;2022-11-20T11:09:21;7.60;99.90
2867;DHT22;1441;48.886;8.728;2022-11-20T11:11:48;7.60;99.90
2867;DHT22;1441;48.886;8.728;2022-11-20T11:14:15;7.70;99.90
2867;DHT22;1441;48.886;8.728;2022-11-20T11:16:55;7.80;99.90
2867;DHT22;1441;48.886;8.728;2022-11-20T11:19:21;7.90;99.90
2867;DHT22;1441;48.886;8.728;2022-11-20T11:21:56;7.90;99.90
2867;DHT22;1441;48.886;8.728;2022-11-20T11:24:25;7.90;99.90
2867;DHT22;1441;48.886;8.728;2022-11-20T11:27:02;8.00;99.90
2867;DHT22;1441;48.886;8.728;2022-11-20T11:29:32;8.00;99.90
2867;DHT22;1441;48.886;8.728;2022-11-20T11:32:08;8.10;99.90
2867;DHT22;1441;48.886;8.728;2022-11-20T11:34:34;8.10;99.90
2867;DHT22;1441;48.886;8.728;2022-11-20T11:37:01;8.20;99.90
2867;DHT22;1441;48.886;8.728;2022-11-20T11:39:29;8.40;99.90
2867;DHT22;1441;48.886;8.728;2022-11-20T11:41:56;8.50;99.90
2867;DHT22;1441;48.886;8.728;2022-11-20T11:44:30;8.60;99.90
2867;DHT22;1441;48.886;8.728;2022-11-20T11:47:43;8.60;99.90
2867;DHT22;1441;48.886;8.728;2022-11-20T11:55:09;8.20;99.90
2867;DHT22;1441;48.886;8.728;2022-11-20T11:57:49;8.10;99.90
2867;DHT22;1441;48.886;8.728;2022-11-20T12:00:19;8.20;99.90
2867;DHT22;1441;48.886;8.728;2022-11-20T12:05:37;8.00;99.90
2867;DHT22;1441;48.886;8.728;2022-11-20T12:08:37;8.00;99.90
2867;DHT22;1441;48.886;8.728;2022-11-20T12:11:33;7.90;99.90
2867;DHT22;1441;48.886;8.728;2022-11-20T12:14:20;7.90;99.90
2867;DHT22;1441;48.886;8.728;2022-11-20T12:16:50;8.00;99.90
2867;DHT22;1441;48.886;8.728;2022-11-20T12:19:18;8.00;99.90
2867;DHT22;1441;48.886;8.728;2022-11-20T12:27:14;8.00;99.60
2867;DHT22;1441;48.886;8.728;2022-11-20T12:30:02;8.10;99.70
2867;DHT22;1441;48.886;8.728;2022-11-20T12:37:45;8.10;98.80
2867;DHT22;1441;48.886;8.728;2022-11-20T12:40:28;8.20;98.40
2867;DHT22;1441;48.886;8.728;2022-11-20T12:48:55;8.10;97.50
2867;DHT22;1441;48.886;8.728;2022-11-20T12:51:40;8.30;97.60
2867;DHT22;1441;48.886;8.728;2022-11-20T12:54:53;8.40;98.00
2867;DHT22;1441;48.886;8.728;2022-11-20T12:57:53;8.40;97.10
2867;DHT22;1441;48.886;8.728;2022-11-20T13:00:22;8.30;97.00
2867;DHT22;1441;48.886;8.728;2022-11-20T13:03:26;8.30;97.40
2867;DHT22;1441;48.886;8.728;2022-11-20T13:06:03;8.20;98.10
2867;DHT22;1441;48.886;8.728;2022-11-20T13:08:36;8.10;98.60
2867;DHT22;1441;48.886;8.728;2022-11-20T13:13:48;8.10;97.40
2867;DHT22;1441;48.886;8.728;2022-11-20T13:19:15;8.10;98.20
2867;DHT22;1441;48.886;8.728;2022-11-20T13:21:46;8.10;97.70
2867;DHT22;1441;48.886;8.728;2022-11-20T13:29:37;8.30;96.30
2867;DHT22;1441;48.886;8.728;2022-11-20T13:32:20;8.40;95.50
2867;DHT22;1441;48.886;8.728;2022-11-20T13:34:57;8.40;95.20
2867;DHT22;1441;48.886;8.728;2022-11-20T13:37:32;8.50;95.80
2867;DHT22;1441;48.886;8.728;2022-11-20T13:42:37;8.70;93.30
2867;DHT22;1441;48.886;8.728;2022-11-20T13:45:10;8.70;92.80
2867;DHT22;1441;48.886;8.728;2022-11-20T13:47:37;8.80;92.60
2867;DHT22;1441;48.886;8.728;2022-11-20T13:50:04;8.60;92.40
2867;DHT22;1441;48.886;8.728;2022-11-20T13:53:02;8.30;93.70
2867;DHT22;1441;48.886;8.728;2022-11-20T13:56:09;8.20;93.60
2867;DHT22;1441;48.886;8.728;2022-11-20T14:01:51;8.10;94.80
2867;DHT22;1441;48.886;8.728;2022-11-20T14:04:23;8.10;94.80
2867;DHT22;1441;48.886;8.728;2022-11-20T14:06:51;8.10;93.90
2867;DHT22;1441;48.886;8.728;2022-11-20T14:09:31;8.10;94.10
2867;DHT22;1441;48.886;8.728;2022-11-20T14:11:57;8.10;93.70
2867;DHT22;1441;48.886;8.728;2022-11-20T14:14:28;8.10;94.10
2867;DHT22;1441;48.886;8.728;2022-11-20T14:17:08;8.00;93.90
2867;DHT22;1441;48.886;8.728;2022-11-20T14:19:43;8.20;93.80
2867;DHT22;1441;48.886;8.728;2022-11-20T14:24:39;8.10;93.30
2867;DHT22;1441;48.886;8.728;2022-11-20T14:27:04;8.10;93.80
2867;DHT22;1441;48.886;8.728;2022-11-20T14:29:35;8.10;93.40
2867;DHT22;1441;48.886;8.728;2022-11-20T14:32:02;8.10;94.30
2867;DHT22;1441;48.886;8.728;2022-11-20T14:34:31;8.00;94.00
2867;DHT22;1441;48.886;8.728;2022-11-20T14:37:03;8.00;93.70
2867;DHT22;1441;48.886;8.728;2022-11-20T14:39:34;8.10;93.90
2867;DHT22;1441;48.886;8.728;2022-11-20T14:42:01;7.90;94.20
2867;DHT22;1441;48.886;8.728;2022-11-20T14:44:30;7.90;94.50
2867;DHT22;1441;48.886;8.728;2022-11-20T14:46:58;7.80;94.50
2867;DHT22;1441;48.886;8.728;2022-11-20T14:49:25;7.80;94.40
2867;DHT22;1441;48.886;8.728;2022-11-20T14:52:02;7.80;95.10
2867;DHT22;1441;48.886;8.728;2022-11-20T14:54:28;7.80;95.20
2867;DHT22;1441;48.886;8.728;2022-11-20T14:57:01;8.00;93.40
2867;DHT22;1441;48.886;8.728;2022-11-20T14:59:30;7.90;93.90
2867;DHT22;1441;48.886;8.728;2022-11-20T15:01:59;7.90;93.20
2867;DHT22;1441;48.886;8.728;2022-11-20T15:04:25;7.90;92.70
2867;DHT22;1441;48.886;8.728;2022-11-20T15:06:56;8.00;91.50
2867;DHT22;1441;48.886;8.728;2022-11-20T15:09:23;7.70;93.20
2867;DHT22;1441;48.886;8.728;2022-11-20T15:11:57;7.60;94.50
2867;DHT22;1441;48.886;8.728;2022-11-20T15:14:25;7.50;93.60
2867;DHT22;1441;48.886;8.728;2022-11-20T15:16:52;7.50;93.60
2867;DHT22;1441;48.886;8.728;2022-11-20T15:19:25;7.40;94.60
2867;DHT22;1441;48.886;8.728;2022-11-20T15:21:52;7.40;94.40
2867;DHT22;1441;48.886;8.728;2022-11-20T15:24:18;7.40;94.10
2867;DHT22;1441;48.886;8.728;2022-11-20T15:26:44;7.40;93.40
2867;DHT22;1441;48.886;8.728;2022-11-20T15:29:12;7.40;94.60
2867;DHT22;1441;48.886;8.728;2022-11-20T15:31:39;7.30;94.90
2867;DHT22;1441;48.886;8.728;2022-11-20T15:34:14;7.30;94.80
2867;DHT22;1441;48.886;8.728;2022-11-20T15:36:41;7.40;93.60
2867;DHT22;1441;48.886;8.728;2022-11-20T15:39:07;7.40;93.50
2867;DHT22;1441;48.886;8.728;2022-11-20T15:41:37;7.60;91.60
2867;DHT22;1441;48.886;8.728;2022-11-20T15:44:06;7.50;93.10
2867;DHT22;1441;48.886;8.728;2022-11-20T15:46:32;7.40;94.30
2867;DHT22;1441;48.886;8.728;2022-11-20T15:49:04;7.40;94.00
2867;DHT22;1441;48.886;8.728;2022-11-20T15:51:35;7.30;94.50
2867;DHT22;1441;48.886;8.728;2022-11-20T15:54:03;7.30;94.80
2867;DHT22;1441;48.886;8.728;2022-11-20T15:56:34;7.20;95.10
2867;DHT22;1441;48.886;8.728;2022-11-20T15:59:00;7.30;94.30
2867;DHT22;1441;48.886;8.728;2022-11-20T16:01:25;7.30;94.50
2867;DHT22;1441;48.886;8.728;2022-11-20T16:03:51;7.40;92.70
2867;DHT22;1441;48.886;8.728;2022-11-20T16:06:16;7.60;91.70
2867;DHT22;1441;48.886;8.728;2022-11-20T16:08:42;7.50;92.70
2867;DHT22;1441;48.886;8.728;2022-11-20T16:11:12;7.50;93.50
2867;DHT22;1441;48.886;8.728;2022-11-20T16:13:37;7.30;94.80
2867;DHT22;1441;48.886;8.728;2022-11-20T16:16:42;7.20;94.80
2867;DHT22;1441;48.886;8.728;2022-11-20T16:19:15;7.30;94.20
2867;DHT22;1441;48.886;8.728;2022-11-20T16:21:41;7.40;92.20
2867;DHT22;1441;48.886;8.728;2022-11-20T16:24:11;7.60;91.20
2867;DHT22;1441;48.886;8.728;2022-11-20T16:26:38;7.60;91.30
2867;DHT22;1441;48.886;8.728;2022-11-20T16:29:04;7.70;91.50
2867;DHT22;1441;48.886;8.728;2022-11-20T16:31:31;7.80;90.00
2867;DHT22;1441;48.886;8.728;2022-11-20T16:33:59;7.70;91.50
2867;DHT22;1441;48.886;8.728;2022-11-20T16:36:27;7.50;92.80
2867;DHT22;1441;48.886;8.728;2022-11-20T16:38:58;7.40;92.50
2867;DHT22;1441;48.886;8.728;2022-11-20T16:41:26;7.50;91.70
2867;DHT22;1441;48.886;8.728;2022-11-20T16:43:57;7.50;92.10
2867;DHT22;1441;48.886;8.728;2022-11-20T16:46:24;7.40;91.90
2867;DHT22;1441;48.886;8.728;2022-11-20T16:51:19;7.70;90.30
2867;DHT22;1441;48.886;8.728;2022-11-20T16:53:45;7.70;90.30
2867;DHT22;1441;48.886;8.728;2022-11-20T16:56:11;7.70;90.30
2867;DHT22;1441;48.886;8.728;2022-11-20T16:58:38;7.70;90.40
2867;DHT22;1441;48.886;8.728;2022-11-20T17:01:08;7.60;91.90
2867;DHT22;1441;48.886;8.728;2022-11-20T17:03:36;7.40;93.20
2867;DHT22;1441;48.886;8.728;2022-11-20T17:06:16;7.30;93.90
2867;DHT22;1441;48.886;8.728;2022-11-20T17:08:42;7.50;91.40
2867;DHT22;1441;48.886;8.728;2022-11-20T17:11:14;7.60;91.00
2867;DHT22;1441;48.886;8.728;2022-11-20T17:13:40;7.60;90.70
2867;DHT22;1441;48.886;8.728;2022-11-20T17:16:15;7.50;91.50
2867;DHT22;1441;48.886;8.728;2022-11-20T17:18:40;7.50;91.00
2867;DHT22;1441;48.886;8.728;2022-11-20T17:21:07;7.50;91.00
2867;DHT22;1441;48.886;8.728;2022-11-20T17:23:34;7.50;90.90
2867;DHT22;1441;48.886;8.728;2022-11-20T17:28:37;7.30;92.70
2867;DHT22;1441;48.886;8.728;2022-11-20T17:31:09;7.20;94.50
2867;DHT22;1441;48.886;8.728;2022-11-20T17:33:36;7.30;92.70
2867;DHT22;1441;48.886;8.728;2022-11-20T17:36:03;7.30;92.60
2867;DHT22;1441;48.886;8.728;2022-11-20T17:38:29;7.20;95.20
2867;DHT22;1441;48.886;8.728;2022-11-20T17:41:11;7.30;93.10
2867;DHT22;1441;48.886;8.728;2022-11-20T17:43:37;7.40;92.70
2867;DHT22;1441;48.886;8.728;2022-11-20T17:46:07;7.30;93.90
2867;DHT22;1441;48.886;8.728;2022-11-20T17:48:34;7.30;93.50
2867;DHT22;1441;48.886;8.728;2022-11-20T17:51:00;7.10;94.40